Time;durP1;ratioP1;P1;durP2;ratioP2;P2;SDS_P1;SDS_P2;PMS_P1;PMS_P2;Temp;Humidity;BMP_temperature;BMP_pressure;BME280_temperature;BME280_humidity;BME280_pressure;Samples;Min_cycle;Max_cycle;Signal;HPM_P1;HPM_P2
2023/03/07 00:01:28;;;;;;;6.32;2.20;;;5.80;99.90;;;;;;4879970;29;20072;-89
2023/03/07 00:03:54;;;;;;;11.48;3.10;;;5.80;99.90;;;;;;4880259;29;20025;-89
2023/03/07 00:06:23;;;;;;;8.10;3.05;;;6.00;99.90;;;;;;4880418;29;20085;-90
2023/03/07 00:08:55;;;;;;;9.50;3.25;;;5.20;99.90;;;;;;4883801;29;20032;-90
2023/03/07 00:11:27;;;;;;;11.82;3.40;;;5.20;99.90;;;;;;4880350;29;20033;-89
2023/03/07 00:13:56;;;;;;;10.10;4.07;;;5.70;99.90;;;;;;4880028;29;20488;-89
2023/03/07 00:16:28;;;;;;;6.07;4.15;;;5.30;99.90;;;;;;4880031;29;20053;-90
2023/03/07 00:18:57;;;;;;;10.35;4.03;;;5.80;99.90;;;;;;4879815;29;20033;-89
2023/03/07 00:21:31;;;;;;;12.82;3.90;;;6.10;99.90;;;;;;4880190;29;20032;-90
2023/03/07 00:24:00;;;;;;;10.10;3.97;;;5.30;99.90;;;;;;4879984;29;20489;-90
2023/03/07 00:26:32;;;;;;;10.63;4.18;;;6.00;99.90;;;;;;4879764;29;20040;-91
2023/03/07 00:29:00;;;;;;;15.05;4.10;;;5.60;99.90;;;;;;4880261;29;20039;-89
2023/03/07 00:31:29;;;;;;;7.88;4.68;;;6.40;99.90;;;;;;4879823;29;20124;-89
2023/03/07 00:33:54;;;;;;;14.73;5.00;;;5.70;99.90;;;;;;4880308;29;20031;-90
2023/03/07 00:36:22;;;;;;;13.23;4.80;;;5.50;99.90;;;;;;4879833;29;20116;-89
2023/03/07 00:38:48;;;;;;;8.85;4.05;;;5.50;99.90;;;;;;4880161;29;20033;-89
2023/03/07 00:41:19;;;;;;;10.20;4.50;;;5.50;99.90;;;;;;4881430;29;20367;-89
2023/03/07 00:43:45;;;;;;;13.77;4.50;;;5.50;99.90;;;;;;4882895;29;20027;-91
2023/03/07 00:46:12;;;;;;;10.10;4.78;;;5.40;99.90;;;;;;4883781;29;20032;-90
2023/03/07 00:48:41;;;;;;;11.65;5.03;;;5.50;99.90;;;;;;4880075;29;20112;-89
2023/03/07 00:51:09;;;;;;;14.70;4.80;;;6.20;99.90;;;;;;4879972;29;20385;-90
2023/03/07 00:53:36;;;;;;;9.75;4.78;;;6.30;99.90;;;;;;4879700;29;20032;-90
2023/03/07 00:56:16;;;;;;;10.73;5.03;;;5.30;99.90;;;;;;4881392;29;20025;-89
2023/03/07 00:58:42;;;;;;;15.45;5.07;;;5.40;99.90;;;;;;4897569;29;20348;-89
2023/03/07 01:01:11;;;;;;;16.70;5.63;;;6.00;99.90;;;;;;4881074;29;20049;-89
2023/03/07 01:03:48;;;;;;;15.25;5.50;;;6.20;99.90;;;;;;4879901;29;20393;-90
2023/03/07 01:06:16;;;;;;;16.35;6.45;;;6.30;99.90;;;;;;4880135;29;20035;-91
2023/03/07 01:08:47;;;;;;;12.35;5.03;;;5.50;99.90;;;;;;4879491;29;20035;-90
2023/03/07 01:11:13;;;;;;;12.20;4.50;;;6.20;99.90;;;;;;4886870;29;20060;-90
2023/03/07 01:13:44;;;;;;;19.13;5.85;;;6.20;99.90;;;;;;4881597;29;20031;-90
2023/03/07 01:16:17;;;;;;;9.02;5.05;;;5.50;99.90;;;;;;4879995;29;20109;-90
2023/03/07 01:18:43;;;;;;;14.30;5.53;;;5.50;99.90;;;;;;4879488;29;20055;-89
2023/03/07 01:21:19;;;;;;;13.52;5.32;;;5.40;99.90;;;;;;4879532;29;20037;-89
2023/03/07 01:23:46;;;;;;;13.73;5.93;;;5.40;99.90;;;;;;4879720;29;20059;-89
2023/03/07 01:26:21;;;;;;;16.75;6.43;;;6.30;99.90;;;;;;4880118;29;20033;-89
2023/03/07 01:28:49;;;;;;;10.77;6.57;;;6.00;99.90;;;;;;4880677;29;20029;-89
2023/03/07 01:31:23;;;;;;;13.50;5.85;;;6.00;99.90;;;;;;4882163;29;20033;-90
2023/03/07 01:33:50;;;;;;;16.70;5.95;;;6.10;99.90;;;;;;4882869;29;20076;-89
2023/03/07 01:36:21;;;;;;;12.43;6.03;;;5.80;99.90;;;;;;4883321;29;20025;-89
2023/03/07 01:38:47;;;;;;;19.88;6.90;;;6.60;99.90;;;;;;4901714;29;20021;-90
2023/03/07 01:41:16;;;;;;;15.93;6.32;;;5.50;99.90;;;;;;4886260;29;20052;-90
2023/03/07 01:43:54;;;;;;;14.70;7.43;;;5.80;99.90;;;;;;4882867;29;20103;-89
2023/03/07 01:46:37;;;;;;;13.43;6.43;;;5.90;99.90;;;;;;4882465;29;20028;-89
2023/03/07 01:49:08;;;;;;;11.88;6.60;;;5.50;99.90;;;;;;4882578;29;20124;-89
2023/03/07 01:51:37;;;;;;;10.63;6.10;;;6.30;99.90;;;;;;4882395;29;20489;-90
2023/03/07 01:54:05;;;;;;;9.75;6.50;;;6.10;99.90;;;;;;4882277;29;20540;-89
2023/03/07 01:56:31;;;;;;;11.10;6.35;;;5.50;99.90;;;;;;4882707;29;20063;-90
2023/03/07 01:58:57;;;;;;;12.55;5.97;;;6.00;99.90;;;;;;4882493;29;20069;-89
2023/03/07 02:01:26;;;;;;;21.88;7.00;;;5.40;99.90;;;;;;4883561;29;20136;-90
2023/03/07 02:04:01;;;;;;;13.60;6.05;;;6.40;99.90;;;;;;4882622;29;20057;-89
2023/03/07 02:06:29;;;;;;;15.80;6.55;;;6.40;99.90;;;;;;4866442;29;20084;-90
2023/03/07 02:08:57;;;;;;;10.13;6.93;;;6.20;99.90;;;;;;4882703;29;20029;-90
2023/03/07 02:11:28;;;;;;;12.88;6.10;;;5.80;99.90;;;;;;4882418;29;20029;-89
2023/03/07 02:13:54;;;;;;;16.88;6.70;;;6.30;99.90;;;;;;4882262;29;20108;-90
2023/03/07 02:16:19;;;;;;;15.95;6.80;;;6.00;99.90;;;;;;4882360;29;20064;-90
2023/03/07 02:18:48;;;;;;;9.02;5.82;;;6.20;99.90;;;;;;4879632;29;20065;-91
2023/03/07 02:22:02;;;;;;;16.83;6.75;;;5.50;99.90;;;;;;4882329;29;20109;-90
2023/03/07 02:24:47;;;;;;;14.50;6.32;;;5.40;99.90;;;;;;4857077;29;20156;-91
2023/03/07 02:27:14;;;;;;;11.98;6.57;;;5.40;99.90;;;;;;4879774;29;20051;-90
2023/03/07 02:29:39;;;;;;;11.13;6.82;;;5.30;99.90;;;;;;4882217;29;20085;-90
2023/03/07 02:32:06;;;;;;;18.13;6.28;;;5.40;99.90;;;;;;4888569;29;20037;-89
2023/03/07 02:34:32;;;;;;;13.18;6.00;;;5.40;99.90;;;;;;4897363;29;20028;-90
2023/03/07 02:37:07;;;;;;;16.70;7.32;;;5.30;99.90;;;;;;4885640;29;20029;-90
2023/03/07 02:39:37;;;;;;;14.45;5.28;;;5.30;99.90;;;;;;4882427;29;20107;-90
2023/03/07 02:42:08;;;;;;;9.35;4.10;;;5.00;99.90;;;;;;4881166;29;20177;-89
2023/03/07 02:44:38;;;;;;;7.25;3.20;;;5.30;99.90;;;;;;4881877;29;20030;-90
2023/03/07 02:47:07;;;;;;;7.90;3.83;;;5.20;99.90;;;;;;4881944;29;20104;-90
2023/03/07 02:49:36;;;;;;;11.90;3.47;;;5.30;99.90;;;;;;4901103;29;20029;-89
2023/03/07 02:52:05;;;;;;;11.77;4.00;;;5.90;99.90;;;;;;4886280;29;20092;-90
2023/03/07 02:54:37;;;;;;;9.63;3.17;;;5.00;99.90;;;;;;4882663;29;20067;-91
2023/03/07 02:57:09;;;;;;;11.82;3.17;;;4.00;99.90;;;;;;4881869;29;20029;-90
2023/03/07 02:59:40;;;;;;;21.58;3.53;;;5.40;99.90;;;;;;4881373;29;20484;-91
2023/03/07 03:02:08;;;;;;;10.43;3.00;;;5.60;99.90;;;;;;4881473;29;20077;-90
2023/03/07 03:04:40;;;;;;;12.50;3.10;;;5.00;99.90;;;;;;4881582;29;20445;-91
2023/03/07 03:07:11;;;;;;;12.90;2.85;;;5.80;99.90;;;;;;4881448;29;20549;-90
2023/03/07 03:09:39;;;;;;;11.32;3.28;;;5.10;99.90;;;;;;4880896;29;20055;-90
2023/03/07 03:12:15;;;;;;;10.38;3.75;;;4.90;99.90;;;;;;4881003;29;20097;-90
2023/03/07 03:14:43;;;;;;;17.10;3.72;;;5.20;99.90;;;;;;4880852;29;20028;-89
2023/03/07 03:17:12;;;;;;;12.88;3.35;;;5.90;99.90;;;;;;4886649;29;20032;-90
2023/03/07 03:19:43;;;;;;;14.00;3.88;;;5.70;99.90;;;;;;4882461;29;20058;-92
2023/03/07 03:22:14;;;;;;;19.38;3.50;;;6.50;99.90;;;;;;4882075;29;20089;-91
2023/03/07 03:24:46;;;;;;;14.23;4.38;;;5.80;99.90;;;;;;4881227;29;20077;-90
2023/03/07 03:27:19;;;;;;;14.50;4.13;;;5.70;99.90;;;;;;4880881;29;20029;-90
2023/03/07 03:29:45;;;;;;;13.50;4.53;;;5.60;99.90;;;;;;4881610;29;20029;-90
2023/03/07 03:32:16;;;;;;;22.23;6.80;;;5.80;99.90;;;;;;4883459;29;20040;-91
2023/03/07 03:34:48;;;;;;;15.57;6.88;;;5.50;99.90;;;;;;4880458;29;20093;-90
2023/03/07 03:37:21;;;;;;;13.68;7.85;;;5.20;99.90;;;;;;4880846;29;20059;-91
2023/03/07 03:39:51;;;;;;;17.50;9.43;;;5.30;99.90;;;;;;4881405;29;20061;-91
2023/03/07 03:42:19;;;;;;;26.27;12.50;;;5.60;99.90;;;;;;4881058;29;20049;-91
2023/03/07 03:44:50;;;;;;;21.10;12.80;;;5.70;99.90;;;;;;4880743;29;20041;-90
2023/03/07 03:47:21;;;;;;;16.95;13.13;;;5.80;99.90;;;;;;4881498;29;20033;-91
2023/03/07 03:49:50;;;;;;;18.27;13.55;;;5.00;99.90;;;;;;4881798;29;20029;-90
2023/03/07 03:52:19;;;;;;;21.85;13.43;;;5.30;99.90;;;;;;4881302;29;20041;-91
2023/03/07 03:54:51;;;;;;;27.67;14.02;;;4.50;99.90;;;;;;4880337;29;20025;-91
2023/03/07 03:57:22;;;;;;;27.05;14.02;;;5.00;99.90;;;;;;4880357;29;20481;-90
2023/03/07 03:59:54;;;;;;;14.18;10.80;;;5.50;99.90;;;;;;4880410;29;20493;-92
2023/03/07 04:02:21;;;;;;;21.70;10.32;;;5.40;99.90;;;;;;4881000;29;20029;-91
2023/03/07 04:04:52;;;;;;;11.82;7.18;;;4.90;99.90;;;;;;4880163;29;20033;-91
2023/03/07 04:07:27;;;;;;;10.20;6.20;;;5.30;99.90;;;;;;4880879;29;20032;-91
2023/03/07 04:09:55;;;;;;;13.75;8.40;;;5.80;99.90;;;;;;4880735;29;20424;-90
2023/03/07 04:12:27;;;;;;;15.45;9.73;;;5.80;99.90;;;;;;4880356;29;20037;-91
2023/03/07 04:14:52;;;;;;;14.43;9.90;;;5.00;99.90;;;;;;4880417;29;20524;-90
2023/03/07 04:17:18;;;;;;;15.88;9.38;;;4.40;99.90;;;;;;4881214;29;20033;-90
2023/03/07 04:19:45;;;;;;;18.63;8.82;;;5.40;99.90;;;;;;4890768;29;20470;-89
2023/03/07 04:22:10;;;;;;;17.58;8.35;;;4.90;99.90;;;;;;4885188;29;20017;-90
2023/03/07 04:24:36;;;;;;;17.88;8.60;;;4.90;99.90;;;;;;4899273;29;20036;-89
2023/03/07 04:27:01;;;;;;;12.73;7.82;;;4.90;99.90;;;;;;4884729;29;20114;-90
2023/03/07 04:29:33;;;;;;;9.05;7.68;;;4.90;99.90;;;;;;4880570;29;20025;-90
2023/03/07 04:32:01;;;;;;;18.02;8.98;;;5.50;99.90;;;;;;4879700;29;20112;-90
2023/03/07 04:34:33;;;;;;;9.73;6.70;;;5.40;99.90;;;;;;4880041;29;20021;-91
2023/03/07 04:37:01;;;;;;;10.05;4.95;;;4.80;99.90;;;;;;4880517;29;20060;-90
2023/03/07 04:39:32;;;;;;;12.02;3.92;;;4.70;99.90;;;;;;4884893;29;20013;-90
2023/03/07 04:42:00;;;;;;;8.23;3.28;;;5.90;99.90;;;;;;4886795;29;20052;-90
2023/03/07 04:44:32;;;;;;;11.10;3.33;;;4.30;99.90;;;;;;4885892;29;20052;-89
2023/03/07 04:47:00;;;;;;;6.57;2.90;;;3.50;99.90;;;;;;4879669;29;20077;-90
2023/03/07 04:49:26;;;;;;;11.43;3.10;;;5.10;99.90;;;;;;4880090;29;20500;-90
2023/03/07 04:51:51;;;;;;;9.70;2.95;;;5.00;99.90;;;;;;4880232;29;20040;-90
2023/03/07 04:54:18;;;;;;;11.13;3.80;;;5.60;99.90;;;;;;4879825;29;20362;-90
2023/03/07 04:56:44;;;;;;;11.55;3.40;;;4.30;99.90;;;;;;4880908;29;20036;-94
2023/03/07 04:59:12;;;;;;;5.25;3.05;;;4.40;99.90;;;;;;4880698;29;20033;-94
2023/03/07 05:01:37;;;;;;;9.05;3.35;;;4.40;99.90;;;;;;4879819;29;20381;-91
2023/03/07 05:04:09;;;;;;;7.65;3.22;;;5.20;99.90;;;;;;4880767;29;20029;-91
2023/03/07 05:06:38;;;;;;;11.10;3.83;;;4.70;99.90;;;;;;4883742;29;20057;-91
2023/03/07 05:09:06;;;;;;;11.20;3.55;;;4.40;99.90;;;;;;4884153;29;20126;-91
2023/03/07 05:11:44;;;;;;;15.75;3.20;;;4.70;99.90;;;;;;4883750;29;20041;-91
2023/03/07 05:14:13;;;;;;;6.13;2.90;;;4.80;99.90;;;;;;4883798;29;20040;-90
2023/03/07 05:16:41;;;;;;;5.75;1.98;;;4.90;99.90;;;;;;4883654;29;20413;-91
2023/03/07 05:19:13;;;;;;;9.02;2.30;;;4.90;99.90;;;;;;4900767;29;20032;-90
2023/03/07 05:21:40;;;;;;;8.63;2.30;;;4.90;99.90;;;;;;4894996;29;20124;-90
2023/03/07 05:24:14;;;;;;;3.15;1.83;;;4.30;99.90;;;;;;4887688;29;20021;-90
2023/03/07 05:26:46;;;;;;;14.98;1.45;;;4.40;99.90;;;;;;4888976;29;20108;-91
2023/03/07 05:29:13;;;;;;;6.43;1.02;;;4.40;99.90;;;;;;4885025;29;20037;-89
2023/03/07 05:31:48;;;;;;;11.85;1.42;;;5.10;99.90;;;;;;4882105;29;20438;-90
2023/03/07 05:34:14;;;;;;;6.20;1.40;;;4.90;99.90;;;;;;4882191;29;20059;-92
2023/03/07 05:36:52;;;;;;;9.48;1.80;;;4.90;99.90;;;;;;4883512;29;20033;-92
2023/03/07 05:39:21;;;;;;;9.45;2.05;;;4.80;99.90;;;;;;4883513;29;20514;-92
2023/03/07 05:41:49;;;;;;;14.05;1.92;;;4.70;99.90;;;;;;4883793;29;20052;-92
2023/03/07 05:44:23;;;;;;;7.32;1.58;;;5.00;99.90;;;;;;4883366;29;20105;-90
2023/03/07 05:46:48;;;;;;;4.80;1.33;;;4.90;99.90;;;;;;4883124;29;20025;-92
2023/03/07 05:49:20;;;;;;;2.17;1.25;;;4.00;99.90;;;;;;4883243;29;20032;-92
2023/03/07 05:51:51;;;;;;;7.07;1.02;;;4.10;99.90;;;;;;4883035;29;20045;-92
2023/03/07 05:54:24;;;;;;;1.98;0.75;;;4.80;99.90;;;;;;4901443;29;20032;-92
2023/03/07 05:56:57;;;;;;;4.28;1.08;;;4.60;99.90;;;;;;4892010;29;20055;-92
2023/03/07 05:59:25;;;;;;;6.55;0.55;;;5.00;99.90;;;;;;4891664;29;20035;-93
2023/03/07 06:01:53;;;;;;;3.90;0.70;;;4.80;99.90;;;;;;4886138;29;20061;-91
2023/03/07 06:04:24;;;;;;;3.33;0.70;;;3.70;99.90;;;;;;4900449;29;20044;-94
2023/03/07 06:06:59;;;;;;;3.55;0.70;;;3.50;99.90;;;;;;4886170;29;20035;-92
2023/03/07 06:09:30;;;;;;;6.65;0.90;;;3.40;99.90;;;;;;4898489;29;20028;-93
2023/03/07 06:12:07;;;;;;;2.90;0.80;;;4.10;99.90;;;;;;4904818;29;20073;-93
2023/03/07 06:14:32;;;;;;;10.18;1.02;;;3.30;99.90;;;;;;4910696;29;20088;-92
2023/03/07 06:17:04;;;;;;;3.65;0.70;;;3.50;99.90;;;;;;4907601;29;20058;-91
2023/03/07 06:19:32;;;;;;;2.40;0.68;;;3.30;99.90;;;;;;4894375;29;20680;-91
2023/03/07 06:22:07;;;;;;;4.28;0.50;;;4.30;99.90;;;;;;4900787;29;20632;-92
2023/03/07 06:24:39;;;;;;;5.28;0.93;;;3.80;99.90;;;;;;4897997;29;20031;-92
2023/03/07 06:27:11;;;;;;;2.30;0.68;;;4.10;99.90;;;;;;4900787;29;20021;-93
2023/03/07 06:29:39;;;;;;;5.20;0.93;;;3.80;99.90;;;;;;4888918;29;20605;-93
2023/03/07 06:32:08;;;;;;;2.15;0.77;;;3.10;99.90;;;;;;4908515;29;20028;-89
2023/03/07 06:34:45;;;;;;;1.17;0.50;;;4.30;99.90;;;;;;4899911;29;20042;-87
2023/03/07 06:37:11;;;;;;;4.97;1.35;;;3.10;99.90;;;;;;4904777;29;20029;-90
2023/03/07 06:39:39;;;;;;;2.78;1.05;;;3.10;99.90;;;;;;4901243;29;20032;-90
2023/03/07 06:42:11;;;;;;;3.95;1.05;;;3.90;99.90;;;;;;4901202;29;20488;-90
2023/03/07 06:44:40;;;;;;;1.13;0.90;;;3.50;99.90;;;;;;4899995;29;20033;-90
2023/03/07 06:47:11;;;;;;;1.38;0.73;;;3.60;99.90;;;;;;4900243;29;20048;-90
2023/03/07 06:49:40;;;;;;;4.40;0.95;;;3.70;99.90;;;;;;4900493;29;20032;-90
2023/03/07 06:52:12;;;;;;;2.90;0.68;;;3.70;99.90;;;;;;4900880;29;20037;-90
2023/03/07 06:54:41;;;;;;;5.03;0.70;;;3.00;99.90;;;;;;4902918;29;20108;-90
2023/03/07 06:57:06;;;;;;;3.45;0.65;;;3.80;99.90;;;;;;4901377;29;20040;-89
2023/03/07 06:59:32;;;;;;;1.85;0.77;;;3.70;99.90;;;;;;4900073;29;20024;-91
2023/03/07 07:02:01;;;;;;;2.80;0.85;;;2.90;99.90;;;;;;4901220;29;20485;-90
2023/03/07 07:04:27;;;;;;;2.47;0.70;;;2.80;99.90;;;;;;4899714;29;20063;-90
2023/03/07 07:06:53;;;;;;;1.95;1.15;;;2.70;99.90;;;;;;4917372;29;20020;-90
2023/03/07 07:09:18;;;;;;;7.90;1.50;;;2.60;99.90;;;;;;4904110;29;20021;-90
2023/03/07 07:11:47;;;;;;;3.03;0.93;;;2.60;99.90;;;;;;4899855;29;20088;-90
2023/03/07 07:14:15;;;;;;;3.97;1.33;;;2.60;99.90;;;;;;4900123;29;20029;-90
2023/03/07 07:16:41;;;;;;;2.33;1.20;;;2.70;99.90;;;;;;4899985;29;20486;-90
2023/03/07 07:19:08;;;;;;;3.03;1.05;;;2.70;99.90;;;;;;4901111;29;20382;-90
2023/03/07 07:21:34;;;;;;;2.05;0.95;;;2.70;99.90;;;;;;4900901;29;20092;-89
2023/03/07 07:24:00;;;;;;;3.80;1.20;;;2.60;99.90;;;;;;4900697;29;20529;-91
2023/03/07 07:26:26;;;;;;;1.70;1.20;;;2.50;99.90;;;;;;4900252;29;20048;-89
2023/03/07 07:28:52;;;;;;;4.32;1.60;;;2.60;99.90;;;;;;4901083;29;20033;-90
2023/03/07 07:31:17;;;;;;;2.70;1.58;;;2.60;99.90;;;;;;4900202;29;20032;-90
2023/03/07 07:33:45;;;;;;;2.00;1.02;;;2.60;99.90;;;;;;4899518;29;20052;-90
2023/03/07 07:36:10;;;;;;;1.35;0.90;;;2.60;99.90;;;;;;4899312;29;20403;-90
2023/03/07 07:38:36;;;;;;;3.92;1.38;;;2.70;99.90;;;;;;4892867;29;20029;-90
2023/03/07 07:41:02;;;;;;;3.08;1.15;;;2.70;99.90;;;;;;4896148;29;20380;-88
2023/03/07 07:43:28;;;;;;;4.65;2.25;;;2.70;99.90;;;;;;4889691;29;20389;-91
2023/03/07 07:45:55;;;;;;;1.98;1.42;;;2.70;99.90;;;;;;4889298;29;20021;-90
2023/03/07 07:48:39;;;;;;;4.90;2.30;;;2.70;99.90;;;;;;4882286;29;20029;-90
2023/03/07 07:51:04;;;;;;;3.65;1.40;;;3.40;99.90;;;;;;4882160;29;20028;-90
2023/03/07 07:53:33;;;;;;;1.88;1.77;;;3.30;99.90;;;;;;4881116;29;20029;-89
2023/03/07 07:56:02;;;;;;;2.67;1.58;;;2.60;99.90;;;;;;4888566;29;20024;-90
2023/03/07 07:58:31;;;;;;;2.17;2.08;;;2.50;99.90;;;;;;4894595;29;20033;-90
2023/03/07 08:01:17;;;;;;;5.10;1.73;;;2.40;99.90;;;;;;4909928;29;20041;-90
2023/03/07 08:03:43;;;;;;;3.25;1.77;;;2.60;99.90;;;;;;4906514;29;20837;-90
2023/03/07 08:06:09;;;;;;;1.42;1.30;;;2.60;99.90;;;;;;4891378;29;20048;-90
2023/03/07 08:08:35;;;;;;;3.90;1.63;;;2.70;99.90;;;;;;4884202;29;20033;-90
2023/03/07 08:11:04;;;;;;;3.13;1.67;;;2.70;99.90;;;;;;4891109;29;20124;-91
2023/03/07 08:13:33;;;;;;;3.90;1.70;;;2.80;99.90;;;;;;4886596;29;20056;-88
2023/03/07 08:16:13;;;;;;;2.45;1.65;;;3.00;99.90;;;;;;4888991;29;20033;-89
2023/03/07 08:18:39;;;;;;;4.13;2.05;;;2.60;99.90;;;;;;4883306;29;20024;-90
2023/03/07 08:21:07;;;;;;;3.10;1.98;;;2.60;99.90;;;;;;4895089;29;20059;-93
2023/03/07 08:23:34;;;;;;;3.67;2.30;;;2.70;99.90;;;;;;4902598;29;20144;-88
2023/03/07 08:26:04;;;;;;;17.40;2.30;;;2.70;99.90;;;;;;4895363;29;20392;-91
2023/03/07 08:28:30;;;;;;;2.40;1.80;;;2.80;99.90;;;;;;4887445;29;20033;-90
2023/03/07 08:30:55;;;;;;;5.43;2.30;;;2.80;99.90;;;;;;4897389;29;20039;-91
2023/03/07 08:33:21;;;;;;;2.90;2.00;;;2.90;99.90;;;;;;4899320;29;20044;-88
2023/03/07 08:35:46;;;;;;;2.58;2.35;;;2.90;99.90;;;;;;4897921;29;20028;-90
2023/03/07 08:38:12;;;;;;;5.18;2.88;;;2.90;99.90;;;;;;4896083;29;20028;-89
2023/03/07 08:40:38;;;;;;;4.07;3.28;;;3.30;99.90;;;;;;4903580;29;20020;-91
2023/03/07 08:43:03;;;;;;;3.00;2.70;;;2.90;99.90;;;;;;4902976;29;20029;-91
2023/03/07 08:45:29;;;;;;;4.28;2.83;;;2.90;99.90;;;;;;4904944;29;20029;-90
2023/03/07 08:47:55;;;;;;;3.95;2.70;;;3.00;99.90;;;;;;4902856;29;20040;-91
2023/03/07 08:50:24;;;;;;;4.03;2.97;;;3.00;99.90;;;;;;4904063;29;20107;-89
2023/03/07 08:52:49;;;;;;;3.38;2.67;;;3.30;99.90;;;;;;4909613;29;20037;-90
2023/03/07 08:55:17;;;;;;;4.80;2.67;;;3.00;99.90;;;;;;4916715;29;20091;-91
2023/03/07 08:57:46;;;;;;;5.65;2.83;;;3.70;99.90;;;;;;4905221;29;20033;-91
2023/03/07 09:00:21;;;;;;;4.78;2.83;;;2.60;99.90;;;;;;4902407;29;20374;-91
2023/03/07 09:02:48;;;;;;;5.93;3.78;;;3.20;99.90;;;;;;4904240;29;20124;-95
2023/03/07 09:05:15;;;;;;;3.70;3.40;;;3.80;99.90;;;;;;4903571;29;20035;-93
2023/03/07 09:07:43;;;;;;;3.30;3.00;;;3.30;99.90;;;;;;4904197;29;20049;-92
2023/03/07 09:10:29;;;;;;;4.55;3.00;;;3.30;99.90;;;;;;4904305;29;20024;-90
2023/03/07 09:12:55;;;;;;;5.85;2.67;;;3.40;99.90;;;;;;4902365;29;20056;-90
2023/03/07 09:15:21;;;;;;;2.58;2.38;;;3.50;99.90;;;;;;4903583;29;20372;-90
2023/03/07 09:17:47;;;;;;;6.00;2.85;;;3.60;99.90;;;;;;4904073;29;20053;-90
2023/03/07 09:20:15;;;;;;;3.45;3.15;;;3.60;99.90;;;;;;4903659;29;20033;-90
2023/03/07 09:22:40;;;;;;;4.68;3.53;;;3.60;99.90;;;;;;4904335;29;20063;-90
2023/03/07 09:25:06;;;;;;;3.50;3.17;;;3.60;99.90;;;;;;4902995;29;20397;-91
2023/03/07 09:27:32;;;;;;;3.97;3.53;;;3.70;99.90;;;;;;4903572;29;20103;-90
2023/03/07 09:29:57;;;;;;;3.47;3.17;;;3.60;99.90;;;;;;4903131;29;20120;-90
2023/03/07 09:32:23;;;;;;;4.82;4.32;;;3.70;99.90;;;;;;4904281;29;20048;-91
2023/03/07 09:34:50;;;;;;;6.47;4.60;;;3.80;99.90;;;;;;4909083;29;20032;-89
2023/03/07 09:37:17;;;;;;;4.25;3.85;;;3.70;99.90;;;;;;4906712;29;20116;-90
2023/03/07 09:39:43;;;;;;;5.40;3.97;;;3.70;99.90;;;;;;4899834;29;20036;-90
2023/03/07 09:42:44;;;;;;;5.97;4.40;;;3.80;99.90;;;;;;4901193;29;20388;-90
2023/03/07 09:45:32;;;;;;;5.15;4.65;;;3.80;99.90;;;;;;4902504;29;20037;-88
2023/03/07 09:48:28;;;;;;;4.95;3.75;;;3.90;99.90;;;;;;4917603;29;20028;-88
2023/03/07 09:50:56;;;;;;;3.85;3.38;;;4.00;99.90;;;;;;4902875;29;20035;-89
2023/03/07 09:53:33;;;;;;;3.13;2.78;;;3.90;99.90;;;;;;4903118;29;20040;-89
2023/03/07 09:56:02;;;;;;;3.95;2.90;;;4.00;99.90;;;;;;4885318;29;20033;-90
2023/03/07 09:58:28;;;;;;;5.07;3.35;;;4.00;99.90;;;;;;4883417;29;20081;-88
2023/03/07 10:01:00;;;;;;;4.15;2.95;;;4.00;99.90;;;;;;4884422;29;20057;-89
2023/03/07 10:03:59;;;;;;;8.45;4.25;;;4.10;99.90;;;;;;4882671;29;20458;-89
2023/03/07 10:06:42;;;;;;;4.18;3.78;;;4.10;99.90;;;;;;4882554;29;20029;-89
2023/03/07 10:09:20;;;;;;;6.55;3.22;;;4.10;99.90;;;;;;4884770;29;20036;-89
2023/03/07 10:12:12;;;;;;;3.88;3.45;;;4.80;99.90;;;;;;4882248;29;20057;-89
2023/03/07 10:14:55;;;;;;;3.90;3.28;;;3.80;99.90;;;;;;4899044;29;20029;-86
2023/03/07 10:18:07;;;;;;;5.32;4.07;;;4.00;99.90;;;;;;4886082;29;20037;-87
2023/03/07 10:20:55;;;;;;;4.13;3.53;;;4.00;99.90;;;;;;4882677;29;20029;-90
2023/03/07 10:23:36;;;;;;;5.38;3.65;;;4.70;99.90;;;;;;4899268;29;20053;-89
2023/03/07 10:26:20;;;;;;;3.55;3.25;;;3.90;99.90;;;;;;4883626;29;20081;-89
2023/03/07 10:28:47;;;;;;;6.00;3.53;;;4.80;99.90;;;;;;4897614;29;20041;-91
2023/03/07 10:31:24;;;;;;;3.72;3.33;;;4.60;99.90;;;;;;4903175;29;20111;-89
2023/03/07 10:33:52;;;;;;;6.57;3.78;;;4.00;99.90;;;;;;4902482;29;20493;-90
2023/03/07 10:36:20;;;;;;;3.30;2.60;;;4.00;99.90;;;;;;4905271;29;20081;-90
2023/03/07 10:38:55;;;;;;;8.52;4.03;;;4.10;99.90;;;;;;4902527;29;20147;-89
2023/03/07 10:41:21;;;;;;;3.95;2.40;;;4.00;99.90;;;;;;4902697;29;20028;-91
2023/03/07 10:43:50;;;;;;;4.43;2.33;;;4.60;99.90;;;;;;4897532;29;20068;-90
2023/03/07 10:46:17;;;;;;;3.53;2.20;;;4.30;99.90;;;;;;4897779;29;20184;-89
2023/03/07 10:49:15;;;;;;;8.98;1.50;;;4.30;99.90;;;;;;4883936;29;20553;-90
2023/03/07 10:52:18;;;;;;;3.05;0.70;;;4.30;99.90;;;;;;4885152;29;20061;-90
2023/03/07 10:54:44;;;;;;;2.80;0.75;;;4.20;99.90;;;;;;4893249;29;20032;-90
2023/03/07 10:57:15;;;;;;;6.22;1.13;;;4.00;99.90;;;;;;4901656;29;20044;-90
2023/03/07 10:59:49;;;;;;;1.15;0.40;;;3.90;99.90;;;;;;4892299;29;20028;-90
2023/03/07 11:02:36;;;;;;;8.90;1.60;;;3.90;99.90;;;;;;4871239;29;20044;-88
2023/03/07 11:05:16;;;;;;;3.00;0.47;;;3.70;99.90;;;;;;4868576;29;20034;-89
2023/03/07 11:07:42;;;;;;;7.80;0.80;;;3.70;99.90;;;;;;4872847;29;20506;-90
2023/03/07 11:10:43;;;;;;;2.80;0.57;;;3.70;99.90;;;;;;4881984;29;20525;-90
2023/03/07 11:13:17;;;;;;;4.95;0.95;;;3.50;99.90;;;;;;4841036;29;20041;-89
2023/03/07 11:15:44;;;;;;;6.13;0.52;;;3.50;99.90;;;;;;4860203;29;20037;-89
2023/03/07 11:18:41;;;;;;;7.75;0.68;;;3.50;99.90;;;;;;4872818;29;20072;-90
2023/03/07 11:21:24;;;;;;;5.15;0.90;;;3.40;99.90;;;;;;4863720;29;20029;-91
2023/03/07 11:24:18;;;;;;;3.70;1.15;;;3.60;99.90;;;;;;4865085;29;20035;-91
2023/03/07 11:27:02;;;;;;;6.93;1.77;;;3.70;99.90;;;;;;4855828;29;20465;-91
2023/03/07 11:29:28;;;;;;;3.97;0.77;;;4.00;99.90;;;;;;4891392;23;20043;-91
2023/03/07 11:32:12;;;;;;;3.35;1.00;;;3.60;99.90;;;;;;4920718;29;20044;-91
2023/03/07 11:34:38;;;;;;;5.05;0.80;;;3.60;99.90;;;;;;4920671;29;20032;-92
2023/03/07 11:37:21;;;;;;;1.73;0.43;;;3.60;99.90;;;;;;4937034;29;20027;-92
2023/03/07 11:40:21;;;;;;;5.78;0.80;;;3.60;99.90;;;;;;4933391;29;20020;-90
2023/03/07 11:43:02;;;;;;;1.10;0.57;;;3.60;99.90;;;;;;4921188;29;20401;-93
2023/03/07 11:45:35;;;;;;;;;;;3.60;99.90;;;;;;4920129;29;20089;-90
2023/03/07 11:48:19;;;;;;;2.85;0.75;;;4.20;99.90;;;;;;4919699;29;20128;-92
2023/03/07 11:50:52;;;;;;;2.53;0.80;;;3.80;99.90;;;;;;4918771;29;20388;-93
2023/03/07 11:53:58;;;;;;;6.65;1.70;;;3.80;99.90;;;;;;4920274;29;20053;-89
2023/03/07 11:56:36;;;;;;;2.45;0.80;;;3.80;99.90;;;;;;4874602;29;20058;-95
2023/03/07 11:59:21;;;;;;;2.83;0.90;;;4.40;99.90;;;;;;4914147;29;20032;-94
2023/03/07 12:02:11;;;;;;;4.72;1.08;;;3.80;99.90;;;;;;4922559;29;20024;-95
2023/03/07 12:05:14;;;;;;;2.08;0.93;;;3.30;99.90;;;;;;4924156;29;20044;-92
2023/03/07 12:08:19;;;;;;;5.22;1.00;;;3.80;99.90;;;;;;4938793;29;20016;-91
2023/03/07 12:11:28;;;;;;;2.75;1.05;;;3.80;99.90;;;;;;4920286;29;20116;-91
2023/03/07 12:14:38;;;;;;;1.90;0.70;;;3.80;99.90;;;;;;4920033;29;20095;-91
2023/03/07 12:17:09;;;;;;;3.53;1.00;;;3.00;99.90;;;;;;4919798;29;20032;-89
2023/03/07 12:20:00;;;;;;;4.50;1.20;;;3.70;99.90;;;;;;4918782;29;20020;-92
2023/03/07 12:22:58;;;;;;;3.30;1.38;;;3.60;99.90;;;;;;4920576;29;20025;-93
2023/03/07 12:25:51;;;;;;;1.10;0.95;;;3.60;99.90;;;;;;4920685;29;20129;-92
2023/03/07 12:28:20;;;;;;;2.60;1.02;;;3.60;99.90;;;;;;4926474;29;20032;-91
2023/03/07 12:31:01;;;;;;;1.42;0.88;;;3.60;99.90;;;;;;4929688;29;20047;-91
2023/03/07 12:33:35;;;;;;;1.67;1.30;;;4.30;99.90;;;;;;4919535;29;20056;-91
2023/03/07 12:36:09;;;;;;;3.65;1.20;;;3.50;99.90;;;;;;4919198;29;20024;-91
2023/03/07 12:38:46;;;;;;;2.53;1.20;;;3.60;99.90;;;;;;4918197;29;20028;-91
2023/03/07 12:41:33;;;;;;;4.18;0.93;;;3.50;99.90;;;;;;4922553;29;20023;-92
2023/03/07 12:44:04;;;;;;;7.78;1.10;;;3.40;99.90;;;;;;4930915;29;20032;-93
2023/03/07 12:47:10;;;;;;;3.95;0.70;;;3.30;99.90;;;;;;4920958;29;20032;-91
2023/03/07 12:49:51;;;;;;;2.78;0.65;;;3.30;99.90;;;;;;4890696;29;20083;-92
2023/03/07 12:52:42;;;;;;;2.65;1.00;;;3.30;99.90;;;;;;4920277;29;20072;-92
2023/03/07 12:55:26;;;;;;;6.13;0.82;;;3.30;99.90;;;;;;4920413;29;20039;-91
2023/03/07 12:58:11;;;;;;;2.50;0.65;;;3.30;99.90;;;;;;4918981;29;20039;-92
2023/03/07 13:00:42;;;;;;;2.58;1.10;;;3.20;99.90;;;;;;4920096;29;20157;-91
2023/03/07 13:03:16;;;;;;;3.92;0.73;;;3.20;99.90;;;;;;4919863;29;20024;-92
2023/03/07 13:05:43;;;;;;;2.50;0.52;;;3.20;99.90;;;;;;4918040;29;20032;-90
2023/03/07 13:08:20;;;;;;;3.08;0.50;;;3.20;99.90;;;;;;4919670;29;20028;-90
2023/03/07 13:10:46;;;;;;;2.67;0.80;;;3.90;99.90;;;;;;4918033;29;20048;-92
2023/03/07 13:13:39;;;;;;;2.83;0.90;;;4.10;99.90;;;;;;4919436;29;20038;-89
2023/03/07 13:16:05;;;;;;;4.15;0.90;;;3.20;99.90;;;;;;4919467;29;20020;-92
2023/03/07 13:18:31;;;;;;;4.78;0.60;;;3.20;99.90;;;;;;4918690;29;20496;-90
2023/03/07 13:21:29;;;;;;;0.85;0.40;;;3.20;99.90;;;;;;4935769;29;20015;-89